Time;durP1;ratioP1;P1;durP2;ratioP2;P2;SDS_P1;SDS_P2;PMS_P1;PMS_P2;Temp;Humidity;BMP_temperature;BMP_pressure;BME280_temperature;BME280_humidity;BME280_pressure;Samples;Min_cycle;Max_cycle;Signal;HPM_P1;HPM_P2
2021/12/08 00:01:28;;;;;;;3.40;3.17;;;;;;;;;;5059987;28;20298;-65
2021/12/08 00:03:55;;;;;;;3.28;2.33;;;;;;;;;;5075005;28;20444;-65
2021/12/08 00:06:23;;;;;;;2.75;2.53;;;;;;;;;;5076301;28;20204;-65
2021/12/08 00:09:01;;;;;;;5.15;2.90;;;;;;;;;;5079910;28;20204;-65
2021/12/08 00:14:12;;;;;;;3.85;3.15;;;;;;;;;;5062169;28;20235;-65
2021/12/08 00:16:38;;;;;;;5.03;3.22;;;;;;;;;;5062149;28;20234;-65
2021/12/08 00:19:05;;;;;;;7.60;3.13;;;;;;;;;;5060940;28;20238;-65
2021/12/08 00:21:32;;;;;;;3.55;3.00;;;;;;;;;;5065018;28;20250;-65
2021/12/08 00:23:59;;;;;;;3.42;2.97;;;;;;;;;;5081840;28;20242;-65
2021/12/08 00:26:25;;;;;;;4.00;3.70;;;;;;;;;;5081948;28;20196;-65
2021/12/08 00:28:52;;;;;;;5.00;3.33;;;;;;;;;;5070837;28;20231;-65
2021/12/08 00:31:18;;;;;;;4.40;3.30;;;;;;;;;;5067258;28;20221;-65
2021/12/08 00:33:46;;;;;;;5.63;3.33;;;;;;;;;;5086039;28;20234;-65
2021/12/08 00:36:14;;;;;;;3.45;3.15;;;;;;;;;;5085231;28;20197;-65
2021/12/08 00:38:42;;;;;;;3.92;3.40;;;;;;;;;;5086297;28;20250;-65
2021/12/08 00:41:09;;;;;;;4.25;3.42;;;;;;;;;;5085362;28;20226;-65
2021/12/08 00:43:35;;;;;;;4.70;3.53;;;;;;;;;;5066215;28;20493;-68
2021/12/08 00:46:02;;;;;;;3.42;3.10;;;;;;;;;;5065598;28;20258;-68
2021/12/08 00:48:28;;;;;;;3.42;3.05;;;;;;;;;;5066080;28;20197;-68
2021/12/08 00:50:55;;;;;;;4.30;3.90;;;;;;;;;;5065957;28;20235;-68
2021/12/08 00:53:21;;;;;;;5.70;3.42;;;;;;;;;;5074200;28;20186;-66
2021/12/08 00:55:49;;;;;;;7.78;3.08;;;;;;;;;;5065526;28;20196;-66
2021/12/08 00:58:15;;;;;;;3.20;2.90;;;;;;;;;;5065547;28;20201;-66
2021/12/08 01:00:43;;;;;;;3.63;3.00;;;;;;;;;;5065491;28;20208;-66
2021/12/08 01:03:10;;;;;;;6.88;2.65;;;;;;;;;;5083450;28;20243;-68
2021/12/08 01:05:38;;;;;;;4.22;2.78;;;;;;;;;;5088593;28;20196;-68
2021/12/08 01:08:06;;;;;;;2.60;2.40;;;;;;;;;;5088269;28;20197;-68
2021/12/08 01:10:32;;;;;;;3.28;2.83;;;;;;;;;;5089070;28;20199;-68
2021/12/08 01:13:00;;;;;;;6.07;3.00;;;;;;;;;;5088362;28;20218;-68
2021/12/08 01:15:28;;;;;;;4.35;2.53;;;;;;;;;;5088462;28;20196;-68
2021/12/08 01:17:55;;;;;;;3.22;2.65;;;;;;;;;;5086760;28;20196;-68
2021/12/08 01:20:22;;;;;;;2.50;2.30;;;;;;;;;;5068874;28;20197;-69
2021/12/08 01:22:48;;;;;;;2.65;2.40;;;;;;;;;;5068884;28;20254;-68
2021/12/08 01:25:15;;;;;;;2.67;2.47;;;;;;;;;;5067913;28;20239;-68
2021/12/08 01:27:42;;;;;;;2.65;2.22;;;;;;;;;;5065251;28;20906;-68
2021/12/08 01:30:11;;;;;;;6.22;2.30;;;;;;;;;;5065164;28;20201;-68
2021/12/08 01:32:40;;;;;;;6.78;2.90;;;;;;;;;;5075747;28;20314;-68
2021/12/08 01:35:08;;;;;;;3.45;2.38;;;;;;;;;;5084647;28;20377;-68
2021/12/08 01:37:34;;;;;;;4.68;2.60;;;;;;;;;;5084965;28;20242;-68
2021/12/08 01:40:01;;;;;;;3.53;2.58;;;;;;;;;;5083769;28;20387;-68
2021/12/08 01:42:31;;;;;;;4.80;2.45;;;;;;;;;;5074981;28;20224;-68
2021/12/08 01:47:45;;;;;;;3.75;2.30;;;;;;;;;;5070347;28;20263;-68
2021/12/08 01:50:12;;;;;;;4.35;2.65;;;;;;;;;;5088293;28;20204;-68
2021/12/08 01:52:38;;;;;;;3.50;2.42;;;;;;;;;;5073728;28;20239;-68
2021/12/08 01:55:05;;;;;;;4.30;2.40;;;;;;;;;;5064387;28;20212;-68
2021/12/08 01:57:32;;;;;;;2.50;2.13;;;;;;;;;;5064746;28;20416;-68
2021/12/08 01:59:58;;;;;;;2.83;2.30;;;;;;;;;;5064339;28;20197;-68
2021/12/08 02:02:25;;;;;;;2.00;1.85;;;;;;;;;;5073032;28;20212;-68
2021/12/08 02:04:53;;;;;;;2.80;2.60;;;;;;;;;;5084535;28;20313;-68
2021/12/08 02:07:19;;;;;;;3.13;2.35;;;;;;;;;;5084578;28;20196;-68
2021/12/08 02:09:46;;;;;;;5.10;2.22;;;;;;;;;;5084360;28;20196;-68
2021/12/08 02:12:12;;;;;;;2.78;2.58;;;;;;;;;;5077582;28;20190;-65
2021/12/08 02:14:40;;;;;;;3.25;2.28;;;;;;;;;;5064267;28;20224;-65
2021/12/08 02:17:10;;;;;;;2.80;2.50;;;;;;;;;;5065378;28;20197;-65
2021/12/08 02:19:37;;;;;;;3.40;3.10;;;;;;;;;;5084062;28;20200;-65
2021/12/08 02:22:04;;;;;;;6.43;3.17;;;;;;;;;;5079029;28;20190;-65
2021/12/08 02:24:31;;;;;;;6.10;3.33;;;;;;;;;;5063808;28;20243;-66
2021/12/08 02:26:58;;;;;;;6.10;3.45;;;;;;;;;;5064178;28;20197;-66
2021/12/08 02:29:33;;;;;;;9.27;3.38;;;;;;;;;;5063842;28;20528;-65
2021/12/08 02:32:06;;;;;;;6.88;3.70;;;;;;;;;;5065195;28;20197;-65
2021/12/08 02:48:14;;;;;;;5.35;2.50;;;;;;;;;;5083477;28;20314;-68
2021/12/08 02:50:43;;;;;;;2.42;2.20;;;;;;;;;;5081621;28;20193;-68
2021/12/08 02:53:12;;;;;;;3.35;2.38;;;;;;;;;;5082083;28;20235;-68
2021/12/08 02:55:42;;;;;;;3.15;2.47;;;;;;;;;;5076103;28;20200;-68
2021/12/08 02:58:09;;;;;;;4.38;2.85;;;;;;;;;;5087278;28;20500;-68
2021/12/08 03:00:37;;;;;;;7.78;3.60;;;;;;;;;;5087649;28;20196;-68
2021/12/08 03:03:06;;;;;;;6.82;3.15;;;;;;;;;;5083815;28;20224;-65
2021/12/08 03:05:32;;;;;;;6.50;2.80;;;;;;;;;;5062953;28;20216;-65
2021/12/08 03:07:59;;;;;;;5.57;3.75;;;;;;;;;;5063449;28;20193;-65
2021/12/08 03:10:28;;;;;;;3.45;2.53;;;;;;;;;;5063106;28;20204;-65
2021/12/08 03:12:55;;;;;;;4.15;2.50;;;;;;;;;;5066573;28;20234;-65
2021/12/08 03:15:21;;;;;;;7.35;3.05;;;;;;;;;;5083111;28;20196;-65
2021/12/08 03:17:47;;;;;;;5.40;3.13;;;;;;;;;;5082997;28;20219;-65
2021/12/08 03:20:16;;;;;;;5.47;3.47;;;;;;;;;;5084500;28;20196;-68
2021/12/08 03:22:46;;;;;;;5.00;2.88;;;;;;;;;;5084332;28;20222;-68
2021/12/08 03:25:16;;;;;;;4.43;2.38;;;;;;;;;;5082711;28;20507;-67
2021/12/08 03:27:50;;;;;;;2.92;2.63;;;;;;;;;;5086667;28;20385;-68
2021/12/08 03:30:21;;;;;;;2.88;2.63;;;;;;;;;;5086595;28;20204;-68
2021/12/08 03:32:47;;;;;;;4.78;2.67;;;;;;;;;;5086598;28;20432;-66
2021/12/08 03:35:15;;;;;;;2.35;2.25;;;;;;;;;;5082460;28;20212;-66
2021/12/08 03:37:43;;;;;;;4.47;2.60;;;;;;;;;;5082629;28;20211;-68
2021/12/08 03:40:10;;;;;;;3.20;2.92;;;;;;;;;;5079972;28;20212;-68
2021/12/08 03:42:38;;;;;;;2.95;2.55;;;;;;;;;;5062546;28;20217;-68
2021/12/08 03:45:09;;;;;;;7.88;3.13;;;;;;;;;;5082490;28;20224;-65
2021/12/08 03:47:38;;;;;;;4.05;3.30;;;;;;;;;;5082541;28;20185;-65
2021/12/08 03:50:06;;;;;;;4.15;2.90;;;;;;;;;;5082801;28;20442;-65
2021/12/08 03:52:32;;;;;;;4.03;2.85;;;;;;;;;;5082404;28;20208;-65
2021/12/08 03:54:59;;;;;;;3.63;3.05;;;;;;;;;;5082035;28;20200;-65
2021/12/08 03:57:26;;;;;;;5.20;2.92;;;;;;;;;;5082463;28;20204;-65
2021/12/08 03:59:52;;;;;;;3.85;3.22;;;;;;;;;;5083174;28;20196;-67
2021/12/08 04:02:21;;;;;;;5.43;3.10;;;;;;;;;;5079835;28;20230;-68
2021/12/08 04:04:50;;;;;;;4.07;3.28;;;;;;;;;;5086092;28;20387;-68
2021/12/08 04:07:18;;;;;;;3.22;3.03;;;;;;;;;;5086001;28;20196;-68
2021/12/08 04:09:47;;;;;;;3.25;3.05;;;;;;;;;;5066766;28;20516;-68
2021/12/08 04:12:14;;;;;;;5.70;3.33;;;;;;;;;;5068772;28;20192;-68
2021/12/08 04:14:42;;;;;;;6.72;3.67;;;;;;;;;;5082137;28;20488;-68
2021/12/08 04:17:13;;;;;;;6.88;3.90;;;;;;;;;;5082512;28;20256;-68
2021/12/08 04:19:44;;;;;;;6.50;3.80;;;;;;;;;;5082198;28;20226;-68
2021/12/08 04:22:12;;;;;;;6.22;3.85;;;;;;;;;;5076286;28;20231;-66
2021/12/08 04:24:39;;;;;;;8.98;4.35;;;;;;;;;;5062127;28;20450;-66
2021/12/08 04:27:07;;;;;;;13.68;6.72;;;;;;;;;;5062103;28;20247;-66
2021/12/08 04:29:36;;;;;;;13.48;8.23;;;;;;;;;;5062104;28;20197;-66
2021/12/08 04:32:02;;;;;;;9.95;6.78;;;;;;;;;;5066918;28;20188;-66
2021/12/08 04:34:32;;;;;;;6.45;4.47;;;;;;;;;;5081747;28;20192;-66
2021/12/08 04:37:03;;;;;;;10.80;6.13;;;;;;;;;;5068744;28;20443;-66
2021/12/08 04:39:38;;;;;;;9.82;5.80;;;;;;;;;;5061983;28;20197;-66
2021/12/08 04:42:10;;;;;;;18.88;8.43;;;;;;;;;;5066506;28;20199;-66
2021/12/08 04:44:42;;;;;;;11.32;6.68;;;;;;;;;;5081738;28;20550;-68
2021/12/08 04:47:33;;;;;;;11.50;6.93;;;;;;;;;;5082330;28;20461;-68
2021/12/08 04:53:02;;;;;;;5.68;4.50;;;;;;;;;;5055038;28;20248;-68
2021/12/08 05:01:24;;;;;;;7.03;5.82;;;;;;;;;;5082270;28;20218;-66
2021/12/08 05:06:51;;;;;;;5.43;4.93;;;;;;;;;;5050750;28;20189;-66
2021/12/08 05:09:21;;;;;;;7.63;6.30;;;;;;;;;;5061626;28;20205;-66
2021/12/08 05:11:49;;;;;;;6.72;6.03;;;;;;;;;;5066977;28;20200;-66
2021/12/08 05:14:17;;;;;;;7.65;6.32;;;;;;;;;;5083595;28;20239;-66
2021/12/08 05:16:45;;;;;;;7.45;6.75;;;;;;;;;;5085331;28;20427;-66
2021/12/08 05:19:13;;;;;;;7.82;6.88;;;;;;;;;;5085238;28;20189;-66
2021/12/08 05:21:41;;;;;;;9.55;6.97;;;;;;;;;;5080639;28;20189;-66
2021/12/08 05:24:08;;;;;;;7.68;6.70;;;;;;;;;;5065280;28;20217;-66
2021/12/08 05:26:38;;;;;;;7.75;6.38;;;;;;;;;;5065102;28;20258;-66
2021/12/08 05:29:07;;;;;;;9.63;6.57;;;;;;;;;;5067050;28;20401;-66
2021/12/08 05:31:33;;;;;;;9.00;6.82;;;;;;;;;;5081615;28;20189;-66
2021/12/08 05:34:01;;;;;;;11.20;9.80;;;;;;;;;;5066471;28;20428;-68
2021/12/08 05:36:28;;;;;;;17.83;12.48;;;;;;;;;;5069461;28;20443;-68
2021/12/08 05:38:55;;;;;;;17.30;11.82;;;;;;;;;;5069803;28;20185;-68
2021/12/08 05:41:23;;;;;;;14.75;9.18;;;;;;;;;;5069335;28;20529;-68
2021/12/08 05:43:51;;;;;;;13.82;11.32;;;;;;;;;;5069427;28;20327;-68
2021/12/08 05:46:19;;;;;;;15.00;10.40;;;;;;;;;;5069577;28;20213;-68
2021/12/08 05:48:48;;;;;;;12.95;9.60;;;;;;;;;;5069311;28;20209;-68
2021/12/08 05:51:15;;;;;;;13.80;8.88;;;;;;;;;;5069150;28;20197;-68
2021/12/08 05:53:44;;;;;;;11.77;9.07;;;;;;;;;;5069530;28;20193;-69
2021/12/08 05:56:11;;;;;;;15.32;9.48;;;;;;;;;;5067845;28;20232;-68
2021/12/08 05:58:38;;;;;;;11.25;7.40;;;;;;;;;;5085744;28;20203;-68
2021/12/08 06:01:08;;;;;;;13.40;8.43;;;;;;;;;;5088767;28;20196;-68
2021/12/08 06:03:35;;;;;;;14.70;8.95;;;;;;;;;;5088818;28;20234;-68
2021/12/08 06:06:01;;;;;;;15.05;8.48;;;;;;;;;;5089136;28;20200;-69
2021/12/08 06:08:28;;;;;;;13.63;9.27;;;;;;;;;;5088991;28;20222;-67
2021/12/08 06:10:55;;;;;;;17.88;8.98;;;;;;;;;;5084991;28;20388;-66
2021/12/08 06:13:22;;;;;;;15.35;8.10;;;;;;;;;;5068082;28;20193;-66
2021/12/08 06:15:49;;;;;;;18.40;9.35;;;;;;;;;;5064195;28;20197;-63
2021/12/08 06:18:20;;;;;;;17.17;8.75;;;;;;;;;;5064092;28;20197;-66
2021/12/08 06:20:46;;;;;;;12.88;9.07;;;;;;;;;;5063963;28;20493;-66
2021/12/08 06:23:13;;;;;;;19.75;8.88;;;;;;;;;;5064132;28;20243;-66
2021/12/08 06:25:39;;;;;;;19.60;9.48;;;;;;;;;;5072854;28;20192;-69
2021/12/08 06:28:07;;;;;;;19.98;10.15;;;;;;;;;;5084001;28;20196;-68
2021/12/08 06:30:34;;;;;;;21.80;10.55;;;;;;;;;;5083958;28;20196;-68
2021/12/08 06:33:00;;;;;;;19.52;10.05;;;;;;;;;;5083817;28;20234;-68
2021/12/08 06:35:30;;;;;;;15.48;9.13;;;;;;;;;;5083878;28;20204;-67
2021/12/08 06:37:56;;;;;;;13.32;9.07;;;;;;;;;;5084029;28;20246;-66
2021/12/08 06:40:25;;;;;;;19.55;8.95;;;;;;;;;;5074227;28;20555;-68
2021/12/08 06:42:53;;;;;;;21.63;11.10;;;;;;;;;;5063743;28;20185;-69
2021/12/08 06:45:21;;;;;;;14.07;8.93;;;;;;;;;;5064276;28;20213;-69
2021/12/08 06:47:48;;;;;;;21.38;9.70;;;;;;;;;;5063317;28;20203;-69
2021/12/08 06:50:17;;;;;;;14.40;8.95;;;;;;;;;;5063430;28;20200;-69
2021/12/08 06:52:45;;;;;;;16.25;8.95;;;;;;;;;;5063621;28;20201;-69
2021/12/08 06:55:13;;;;;;;12.27;8.25;;;;;;;;;;5063408;28;20193;-70
2021/12/08 06:57:41;;;;;;;15.30;9.25;;;;;;;;;;5063392;28;20197;-68
2021/12/08 07:00:19;;;;;;;13.68;8.27;;;;;;;;;;5063557;28;20201;-70
2021/12/08 07:02:58;;;;;;;12.23;7.85;;;;;;;;;;5063232;28;20196;-70
2021/12/08 07:05:29;;;;;;;9.32;7.95;;;;;;;;;;5062990;28;20217;-71
2021/12/08 07:07:59;;;;;;;14.73;8.77;;;;;;;;;;5063086;28;20427;-70
2021/12/08 07:10:27;;;;;;;13.88;8.52;;;;;;;;;;5063158;28;20250;-69
2021/12/08 07:12:55;;;;;;;13.85;8.55;;;;;;;;;;5068045;28;20426;-69
2021/12/08 07:15:23;;;;;;;13.30;8.57;;;;;;;;;;5081370;28;20184;-69
2021/12/08 07:17:50;;;;;;;17.90;8.98;;;;;;;;;;5083016;28;20196;-66
2021/12/08 07:20:40;;;;;;;18.13;8.18;;;;;;;;;;5083171;28;20196;-68
2021/12/08 07:23:08;;;;;;;15.77;9.18;;;;;;;;;;5082892;28;20422;-71
2021/12/08 07:25:35;;;;;;;17.13;7.68;;;;;;;;;;5082219;28;20220;-60
2021/12/08 07:28:02;;;;;;;18.20;10.23;;;;;;;;;;5082789;28;20363;-60
2021/12/08 07:30:30;;;;;;;16.35;10.20;;;;;;;;;;5081335;28;20246;-60
2021/12/08 07:32:56;;;;;;;17.17;9.57;;;;;;;;;;5070254;28;20419;-60
2021/12/08 07:35:26;;;;;;;15.60;9.63;;;;;;;;;;5065541;28;20251;-57
2021/12/08 07:37:52;;;;;;;12.88;8.05;;;;;;;;;;5075314;28;20227;-57
2021/12/08 07:40:22;;;;;;;9.93;7.45;;;;;;;;;;5076302;28;20521;-54
2021/12/08 07:42:51;;;;;;;11.07;6.88;;;;;;;;;;5076471;28;20258;-57
2021/12/08 07:45:20;;;;;;;9.75;6.85;;;;;;;;;;5067809;28;20279;-57
2021/12/08 07:47:48;;;;;;;8.93;6.55;;;;;;;;;;5068199;28;20213;-58
2021/12/08 07:50:17;;;;;;;8.40;7.07;;;;;;;;;;5074900;28;20262;-56
2021/12/08 07:52:44;;;;;;;9.40;6.32;;;;;;;;;;5056157;28;20515;-54
2021/12/08 07:55:13;;;;;;;7.05;6.35;;;;;;;;;;5071182;28;20205;-58
2021/12/08 07:57:41;;;;;;;8.15;6.43;;;;;;;;;;5076301;28;20517;-60
2021/12/08 08:00:11;;;;;;;6.30;5.70;;;;;;;;;;5058182;28;20208;-59
2021/12/08 08:02:37;;;;;;;10.18;6.05;;;;;;;;;;5063195;28;20209;-58
2021/12/08 08:05:05;;;;;;;8.05;6.38;;;;;;;;;;5056240;28;20251;-59
2021/12/08 08:07:31;;;;;;;10.60;7.45;;;;;;;;;;5057279;28;20235;-59
2021/12/08 08:10:01;;;;;;;9.55;6.68;;;;;;;;;;5056977;28;20248;-59
2021/12/08 08:12:29;;;;;;;12.32;7.35;;;;;;;;;;5058858;28;20235;-55
2021/12/08 08:14:58;;;;;;;9.05;7.50;;;;;;;;;;5074107;28;20215;-56
2021/12/08 08:17:30;;;;;;;9.38;6.90;;;;;;;;;;5075810;28;20208;-55
2021/12/08 08:19:57;;;;;;;7.30;6.63;;;;;;;;;;5072004;28;20582;-59
2021/12/08 08:22:25;;;;;;;9.98;7.85;;;;;;;;;;5064955;28;20209;-58
2021/12/08 08:24:52;;;;;;;8.75;7.13;;;;;;;;;;5056433;28;20220;-59
2021/12/08 08:27:19;;;;;;;9.75;7.20;;;;;;;;;;5065452;28;20197;-60
2021/12/08 08:29:46;;;;;;;10.85;7.18;;;;;;;;;;5058664;28;20235;-60
2021/12/08 08:32:19;;;;;;;9.50;7.20;;;;;;;;;;5059536;28;20212;-58
2021/12/08 08:34:45;;;;;;;8.02;7.20;;;;;;;;;;5057322;28;20251;-58
2021/12/08 08:37:13;;;;;;;10.82;7.95;;;;;;;;;;5058939;28;20274;-59
2021/12/08 08:39:42;;;;;;;11.30;7.53;;;;;;;;;;5060918;28;20205;-54
2021/12/08 08:42:13;;;;;;;12.02;7.55;;;;;;;;;;5056055;28;20341;-56
2021/12/08 08:44:41;;;;;;;10.77;8.05;;;;;;;;;;5056745;28;20229;-56
2021/12/08 08:47:09;;;;;;;12.40;7.93;;;;;;;;;;5055729;28;20209;-55
2021/12/08 08:49:39;;;;;;;9.07;7.35;;;;;;;;;;5067298;28;20209;-55
2021/12/08 08:52:08;;;;;;;11.98;7.50;;;;;;;;;;5061549;28;20232;-54
2021/12/08 08:54:39;;;;;;;8.45;7.60;;;;;;;;;;5060450;28;20263;-56
2021/12/08 08:57:08;;;;;;;11.10;7.47;;;;;;;;;;5073814;28;20205;-55
2021/12/08 08:59:40;;;;;;;9.75;8.27;;;;;;;;;;5058936;28;20536;-57
2021/12/08 09:02:09;;;;;;;9.82;7.95;;;;;;;;;;5059024;28;20246;-56
2021/12/08 09:04:38;;;;;;;9.77;7.93;;;;;;;;;;5057949;28;20505;-57
2021/12/08 09:07:06;;;;;;;8.80;7.28;;;;;;;;;;5059687;28;20209;-56
2021/12/08 09:09:34;;;;;;;12.65;7.53;;;;;;;;;;5059875;28;20271;-57
2021/12/08 09:12:02;;;;;;;9.68;7.10;;;;;;;;;;5059363;28;20278;-57
2021/12/08 09:14:30;;;;;;;10.80;6.78;;;;;;;;;;5061535;28;20381;-54
2021/12/08 09:16:58;;;;;;;8.93;7.05;;;;;;;;;;5060007;28;20209;-56
2021/12/08 09:19:26;;;;;;;7.97;6.72;;;;;;;;;;5061431;28;20386;-55
2021/12/08 09:21:59;;;;;;;10.70;7.18;;;;;;;;;;5073440;28;20209;-56
2021/12/08 09:24:33;;;;;;;9.30;7.53;;;;;;;;;;5058577;28;20279;-56
2021/12/08 09:26:59;;;;;;;9.70;6.85;;;;;;;;;;5059678;28;20254;-57
2021/12/08 09:29:27;;;;;;;8.75;7.32;;;;;;;;;;5078745;28;20235;-55
2021/12/08 09:31:56;;;;;;;9.93;8.55;;;;;;;;;;5077479;28;20307;-55
2021/12/08 09:34:24;;;;;;;9.88;8.57;;;;;;;;;;5058204;28;20438;-54
2021/12/08 09:36:52;;;;;;;9.30;8.40;;;;;;;;;;5058679;28;20277;-57
2021/12/08 09:39:24;;;;;;;10.18;7.70;;;;;;;;;;5078202;28;20520;-54
2021/12/08 09:41:54;;;;;;;7.60;6.82;;;;;;;;;;5078552;28;20216;-55
2021/12/08 09:44:22;;;;;;;10.88;7.72;;;;;;;;;;5057892;28;20266;-56
2021/12/08 09:46:50;;;;;;;8.10;7.30;;;;;;;;;;5059140;28;20240;-56
2021/12/08 09:49:18;;;;;;;11.57;7.80;;;;;;;;;;5061965;28;20451;-55
2021/12/08 09:51:45;;;;;;;7.60;6.93;;;;;;;;;;5069900;28;20205;-57
2021/12/08 09:54:12;;;;;;;7.55;6.75;;;;;;;;;;5057635;28;20388;-56
2021/12/08 09:56:40;;;;;;;10.95;7.95;;;;;;;;;;5057405;28;20251;-56
2021/12/08 09:59:09;;;;;;;11.80;8.10;;;;;;;;;;5058025;28;20256;-57
2021/12/08 10:01:38;;;;;;;11.48;7.55;;;;;;;;;;5058911;28;20263;-57
2021/12/08 10:04:05;;;;;;;15.23;7.70;;;;;;;;;;5058660;28;20243;-56
2021/12/08 10:06:31;;;;;;;12.60;7.72;;;;;;;;;;5068890;28;20223;-55
2021/12/08 10:08:59;;;;;;;10.68;7.32;;;;;;;;;;5077695;28;20208;-55
2021/12/08 10:11:27;;;;;;;12.85;8.30;;;;;;;;;;5075653;28;20283;-57
2021/12/08 10:13:55;;;;;;;9.13;7.53;;;;;;;;;;5077410;28;20208;-55
2021/12/08 10:16:22;;;;;;;9.07;8.07;;;;;;;;;;5076179;28;20196;-57
2021/12/08 10:18:49;;;;;;;10.70;8.35;;;;;;;;;;5077559;28;20208;-57
2021/12/08 10:21:16;;;;;;;12.98;9.32;;;;;;;;;;5059718;28;20256;-56
2021/12/08 10:23:43;;;;;;;10.18;9.05;;;;;;;;;;5076893;28;20212;-58
2021/12/08 10:26:10;;;;;;;11.05;8.73;;;;;;;;;;5075488;28;20244;-57
2021/12/08 10:28:38;;;;;;;11.65;8.40;;;;;;;;;;5068859;28;20208;-56
2021/12/08 10:31:08;;;;;;;13.00;8.70;;;;;;;;;;5076118;28;20393;-57
2021/12/08 10:33:47;;;;;;;11.93;9.57;;;;;;;;;;5069969;28;20392;-57
2021/12/08 10:36:33;;;;;;;14.90;8.77;;;;;;;;;;5057945;28;20212;-55
2021/12/08 10:39:00;;;;;;;11.80;8.27;;;;;;;;;;5074277;28;20222;-56
2021/12/08 10:41:27;;;;;;;9.70;8.48;;;;;;;;;;5075632;28;20216;-58
2021/12/08 10:44:00;;;;;;;12.35;8.35;;;;;;;;;;5073968;28;20408;-56
2021/12/08 10:46:34;;;;;;;10.73;7.28;;;;;;;;;;5076125;28;20232;-55
2021/12/08 10:49:11;;;;;;;12.48;8.15;;;;;;;;;;5070963;28;20234;-54
2021/12/08 10:54:30;;;;;;;16.55;9.20;;;;;;;;;;5073063;28;20542;-55
2021/12/08 10:56:57;;;;;;;10.20;8.45;;;;;;;;;;5076372;28;20247;-55
2021/12/08 10:59:25;;;;;;;21.92;9.98;;;;;;;;;;5076646;28;20648;-54
2021/12/08 11:01:53;;;;;;;15.52;10.07;;;;;;;;;;5069178;28;20593;-54
2021/12/08 11:04:20;;;;;;;26.80;15.77;;;;;;;;;;5057618;28;20248;-52
2021/12/08 11:06:47;;;;;;;20.30;12.02;;;;;;;;;;5056480;28;20276;-54
2021/12/08 11:09:15;;;;;;;18.83;11.75;;;;;;;;;;5056559;28;20232;-54
2021/12/08 11:11:44;;;;;;;18.50;10.82;;;;;;;;;;5058945;28;20255;-57
2021/12/08 11:14:11;;;;;;;17.02;12.00;;;;;;;;;;5058800;28;20205;-56
2021/12/08 11:16:39;;;;;;;16.65;10.85;;;;;;;;;;5057661;28;20533;-56
2021/12/08 11:19:10;;;;;;;16.85;9.60;;;;;;;;;;5056899;28;20399;-56
2021/12/08 11:21:38;;;;;;;17.92;10.68;;;;;;;;;;5056873;28;20247;-55
2021/12/08 11:24:06;;;;;;;10.00;8.90;;;;;;;;;;5061766;28;20232;-55
2021/12/08 11:26:37;;;;;;;12.82;8.48;;;;;;;;;;5068077;28;20257;-55
2021/12/08 11:29:05;;;;;;;15.60;7.95;;;;;;;;;;5065094;28;20415;-55
2021/12/08 11:31:34;;;;;;;11.32;8.75;;;;;;;;;;5068421;28;20232;-57
2021/12/08 11:34:05;;;;;;;6.70;6.10;;;;;;;;;;5075992;28;20205;-58
2021/12/08 11:36:34;;;;;;;6.00;5.43;;;;;;;;;;5072932;28;20280;-57
2021/12/08 11:39:06;;;;;;;5.70;5.18;;;;;;;;;;5056293;28;20274;-56
2021/12/08 11:41:36;;;;;;;5.80;5.32;;;;;;;;;;5056071;28;20292;-55
2021/12/08 11:44:04;;;;;;;7.80;5.85;;;;;;;;;;5069957;28;20388;-57
2021/12/08 11:46:34;;;;;;;6.10;5.63;;;;;;;;;;5075599;28;20469;-57
2021/12/08 11:49:06;;;;;;;5.80;5.40;;;;;;;;;;5074095;28;20516;-57
2021/12/08 11:51:48;;;;;;;5.72;5.13;;;;;;;;;;5056362;28;20276;-56
2021/12/08 11:54:23;;;;;;;6.68;5.72;;;;;;;;;;5072270;28;20215;-57
2021/12/08 11:56:49;;;;;;;7.43;6.22;;;;;;;;;;5071250;28;20204;-57
2021/12/08 11:59:16;;;;;;;6.97;5.70;;;;;;;;;;5055926;28;20602;-56
2021/12/08 12:01:43;;;;;;;6.47;5.88;;;;;;;;;;5058338;28;20205;-58
2021/12/08 12:04:11;;;;;;;6.15;5.63;;;;;;;;;;5057127;28;20294;-59
2021/12/08 12:06:39;;;;;;;6.50;5.95;;;;;;;;;;5067346;28;20224;-59
2021/12/08 12:09:07;;;;;;;6.40;5.80;;;;;;;;;;5075955;28;20265;-57
2021/12/08 12:11:33;;;;;;;7.05;6.35;;;;;;;;;;5075942;28;20269;-57
2021/12/08 12:14:00;;;;;;;8.82;5.90;;;;;;;;;;5059279;28;20205;-57
2021/12/08 12:16:27;;;;;;;6.03;5.35;;;;;;;;;;5055164;28;20227;-55
2021/12/08 12:18:56;;;;;;;6.20;5.60;;;;;;;;;;5055674;28;20209;-57
2021/12/08 12:21:30;;;;;;;6.10;5.60;;;;;;;;;;5056005;28;20236;-57
2021/12/08 12:24:11;;;;;;;6.00;5.45;;;;;;;;;;5072215;28;20322;-56
2021/12/08 12:26:43;;;;;;;5.65;4.47;;;;;;;;;;5079106;28;20294;-57
2021/12/08 12:29:15;;;;;;;6.38;4.88;;;;;;;;;;5062540;28;20235;-57
2021/12/08 12:31:45;;;;;;;5.40;5.00;;;;;;;;;;5060092;28;20209;-57
2021/12/08 12:34:23;;;;;;;5.82;5.20;;;;;;;;;;5060280;28;20280;-57
2021/12/08 12:36:50;;;;;;;6.45;5.00;;;;;;;;;;5079104;28;20280;-58
2021/12/08 12:39:19;;;;;;;8.15;5.45;;;;;;;;;;5079464;28;20208;-57
2021/12/08 12:41:45;;;;;;;12.15;8.18;;;;;;;;;;5079919;28;20254;-56
2021/12/08 12:44:16;;;;;;;6.68;6.07;;;;;;;;;;5078972;28;20257;-56
2021/12/08 12:47:01;;;;;;;8.38;6.78;;;;;;;;;;5075269;28;20228;-58
2021/12/08 12:49:28;;;;;;;8.95;6.60;;;;;;;;;;5075538;28;20211;-57
2021/12/08 12:51:58;;;;;;;8.18;6.43;;;;;;;;;;5059597;28;20420;-57
2021/12/08 12:54:26;;;;;;;9.20;6.28;;;;;;;;;;5069735;28;20226;-57
2021/12/08 12:56:53;;;;;;;6.38;5.53;;;;;;;;;;5077762;28;20219;-57
2021/12/08 12:59:21;;;;;;;6.43;5.80;;;;;;;;;;5076551;28;20415;-57
2021/12/08 13:02:03;;;;;;;5.97;5.47;;;;;;;;;;5079674;28;20208;-57
2021/12/08 13:04:30;;;;;;;6.20;5.43;;;;;;;;;;5078495;28;20208;-56
2021/12/08 13:06:58;;;;;;;5.55;5.07;;;;;;;;;;5068115;28;20221;-57
2021/12/08 13:09:43;;;;;;;5.60;4.95;;;;;;;;;;5064566;28;20213;-57
2021/12/08 13:12:10;;;;;;;5.18;4.78;;;;;;;;;;5079113;28;20218;-57
2021/12/08 13:14:37;;;;;;;6.10;5.60;;;;;;;;;;5077956;28;20205;-55
2021/12/08 13:17:08;;;;;;;7.03;5.45;;;;;;;;;;5078972;28;20223;-56
2021/12/08 13:19:41;;;;;;;7.55;5.90;;;;;;;;;;5079072;28;20208;-57
2021/12/08 13:22:08;;;;;;;7.60;6.70;;;;;;;;;;5068999;28;20275;-55
2021/12/08 13:24:39;;;;;;;8.80;6.90;;;;;;;;;;5058060;28;20232;-57
2021/12/08 13:27:08;;;;;;;7.95;7.18;;;;;;;;;;5073552;28;20287;-57
2021/12/08 13:29:36;;;;;;;16.17;7.78;;;;;;;;;;5058772;28;20212;-57
2021/12/08 13:32:11;;;;;;;10.60;7.72;;;;;;;;;;5058103;28;20209;-57
2021/12/08 13:34:38;;;;;;;13.32;7.65;;;;;;;;;;5071090;28;20243;-57
2021/12/08 13:37:23;;;;;;;11.18;7.90;;;;;;;;;;5067335;28;20251;-57
2021/12/08 13:39:51;;;;;;;13.95;8.38;;;;;;;;;;5059782;28;20583;-57
2021/12/08 13:42:27;;;;;;;16.58;9.27;;;;;;;;;;5060116;28;20420;-56
2021/12/08 13:44:54;;;;;;;12.65;8.77;;;;;;;;;;5068095;28;20578;-56
2021/12/08 13:47:26;;;;;;;12.98;8.10;;;;;;;;;;5058182;28;20228;-55
2021/12/08 13:49:54;;;;;;;11.27;8.32;;;;;;;;;;5062903;28;20516;-54
2021/12/08 13:52:27;;;;;;;12.10;8.95;;;;;;;;;;5073372;28;20536;-56
2021/12/08 13:54:54;;;;;;;11.95;8.18;;;;;;;;;;5057393;28;20209;-55
2021/12/08 13:57:30;;;;;;;8.63;7.72;;;;;;;;;;5075963;28;20454;-56
2021/12/08 13:59:57;;;;;;;7.88;7.07;;;;;;;;;;5076468;28;20242;-56
2021/12/08 14:02:25;;;;;;;7.03;6.32;;;;;;;;;;5076265;28;20251;-57
2021/12/08 14:04:58;;;;;;;9.20;6.65;;;;;;;;;;5062534;28;20216;-53
2021/12/08 14:07:24;;;;;;;7.85;6.35;;;;;;;;;;5057507;28;20331;-56
2021/12/08 14:09:55;;;;;;;6.90;6.15;;;;;;;;;;5057792;28;20213;-55
2021/12/08 14:12:22;;;;;;;6.22;5.63;;;;;;;;;;5057911;28;20243;-56
2021/12/08 14:14:56;;;;;;;6.22;5.72;;;;;;;;;;5056982;28;20492;-55
2021/12/08 14:17:27;;;;;;;6.95;6.35;;;;;;;;;;5073425;28;20205;-54
2021/12/08 14:19:53;;;;;;;6.18;5.65;;;;;;;;;;5077802;28;20209;-53
2021/12/08 14:22:19;;;;;;;6.10;5.60;;;;;;;;;;5077664;28;20496;-54
2021/12/08 14:24:54;;;;;;;9.95;6.57;;;;;;;;;;5077497;28;20435;-56
2021/12/08 14:27:21;;;;;;;9.65;6.28;;;;;;;;;;5073491;28;20229;-54
2021/12/08 14:29:47;;;;;;;7.45;6.40;;;;;;;;;;5074597;28;20213;-55
2021/12/08 14:32:17;;;;;;;6.95;6.25;;;;;;;;;;5077039;28;20389;-56
2021/12/08 14:34:44;;;;;;;6.15;5.65;;;;;;;;;;5076961;28;20540;-55
2021/12/08 14:37:12;;;;;;;6.93;6.22;;;;;;;;;;5077271;28;20204;-56
2021/12/08 14:39:40;;;;;;;8.10;5.68;;;;;;;;;;5075949;28;20250;-56
2021/12/08 14:42:07;;;;;;;6.53;5.97;;;;;;;;;;5057262;28;20220;-57
2021/12/08 14:44:36;;;;;;;9.30;6.43;;;;;;;;;;5056481;28;20209;-54
2021/12/08 14:47:04;;;;;;;6.60;6.00;;;;;;;;;;5068223;28;20590;-56
2021/12/08 14:49:32;;;;;;;7.75;6.97;;;;;;;;;;5057594;28;20255;-55
2021/12/08 14:52:03;;;;;;;7.95;6.32;;;;;;;;;;5056825;28;20271;-55
2021/12/08 14:54:30;;;;;;;11.38;6.85;;;;;;;;;;5056193;28;20516;-55
2021/12/08 14:57:13;;;;;;;9.90;6.88;;;;;;;;;;5059364;28;20206;-55
2021/12/08 14:59:40;;;;;;;8.75;7.30;;;;;;;;;;5070440;28;20205;-55
2021/12/08 15:02:07;;;;;;;7.82;6.90;;;;;;;;;;5056762;28;20209;-55
2021/12/08 15:04:36;;;;;;;11.20;7.00;;;;;;;;;;5073497;28;20212;-55
2021/12/08 15:07:04;;;;;;;8.60;7.43;;;;;;;;;;5076752;28;20224;-56
2021/12/08 15:09:31;;;;;;;9.18;7.57;;;;;;;;;;5057261;28;20250;-54
2021/12/08 15:11:58;;;;;;;9.73;7.60;;;;;;;;;;5061546;28;20204;-56
2021/12/08 15:14:26;;;;;;;8.45;7.60;;;;;;;;;;5095071;28;20211;-54
2021/12/08 15:16:54;;;;;;;9.15;7.22;;;;;;;;;;5097107;28;20203;-57
2021/12/08 15:19:22;;;;;;;8.43;7.60;;;;;;;;;;5096598;28;20207;-57
2021/12/08 15:21:53;;;;;;;9.00;7.70;;;;;;;;;;5093994;28;20214;-57